sensor_id;sensor_type;location;lat;lon;timestamp;P1;durP1;ratioP1;P2;durP2;ratioP2
17696;SDS011;8967;47.984;7.842;2023-03-20T00:00:41;1.10;;;1.00;;
17696;SDS011;8967;47.984;7.842;2023-03-20T00:03:10;1.35;;;1.15;;
17696;SDS011;8967;47.984;7.842;2023-03-20T00:05:38;1.58;;;1.00;;
17696;SDS011;8967;47.984;7.842;2023-03-20T00:08:05;0.90;;;0.82;;
17696;SDS011;8967;47.984;7.842;2023-03-20T00:10:34;1.30;;;1.02;;
17696;SDS011;8967;47.984;7.842;2023-03-20T00:13:04;1.20;;;1.10;;
17696;SDS011;8967;47.984;7.842;2023-03-20T00:15:35;1.55;;;1.00;;
17696;SDS011;8967;47.984;7.842;2023-03-20T00:18:05;3.63;;;1.20;;
17696;SDS011;8967;47.984;7.842;2023-03-20T00:20:39;1.40;;;0.90;;
17696;SDS011;8967;47.984;7.842;2023-03-20T00:23:06;2.08;;;1.17;;
17696;SDS011;8967;47.984;7.842;2023-03-20T00:25:34;1.38;;;1.20;;
17696;SDS011;8967;47.984;7.842;2023-03-20T00:28:09;1.98;;;1.52;;
17696;SDS011;8967;47.984;7.842;2023-03-20T00:30:54;2.00;;;1.63;;
17696;SDS011;8967;47.984;7.842;2023-03-20T00:33:21;1.77;;;1.48;;
17696;SDS011;8967;47.984;7.842;2023-03-20T00:35:50;1.83;;;1.27;;
17696;SDS011;8967;47.984;7.842;2023-03-20T00:38:17;2.85;;;1.48;;
17696;SDS011;8967;47.984;7.842;2023-03-20T00:40:45;1.45;;;1.35;;
17696;SDS011;8967;47.984;7.842;2023-03-20T00:43:12;1.30;;;1.20;;
17696;SDS011;8967;47.984;7.842;2023-03-20T00:45:40;1.50;;;1.30;;
17696;SDS011;8967;47.984;7.842;2023-03-20T00:48:11;2.13;;;1.30;;
17696;SDS011;8967;47.984;7.842;2023-03-20T00:50:43;1.48;;;1.38;;
17696;SDS011;8967;47.984;7.842;2023-03-20T00:53:12;1.52;;;1.35;;
17696;SDS011;8967;47.984;7.842;2023-03-20T00:55:41;2.05;;;1.55;;
17696;SDS011;8967;47.984;7.842;2023-03-20T00:58:09;1.80;;;1.52;;
17696;SDS011;8967;47.984;7.842;2023-03-20T01:00:39;2.00;;;1.38;;
17696;SDS011;8967;47.984;7.842;2023-03-20T01:03:12;1.60;;;1.10;;
17696;SDS011;8967;47.984;7.842;2023-03-20T01:05:41;3.63;;;1.73;;
17696;SDS011;8967;47.984;7.842;2023-03-20T01:08:12;1.90;;;1.40;;
17696;SDS011;8967;47.984;7.842;2023-03-20T01:10:40;2.13;;;1.80;;
17696;SDS011;8967;47.984;7.842;2023-03-20T01:13:14;1.70;;;1.35;;
17696;SDS011;8967;47.984;7.842;2023-03-20T01:15:46;3.70;;;1.60;;
17696;SDS011;8967;47.984;7.842;2023-03-20T01:18:14;2.63;;;1.50;;
17696;SDS011;8967;47.984;7.842;2023-03-20T01:20:42;2.33;;;1.55;;
17696;SDS011;8967;47.984;7.842;2023-03-20T01:23:10;2.78;;;1.30;;
17696;SDS011;8967;47.984;7.842;2023-03-20T01:25:39;2.03;;;1.13;;
17696;SDS011;8967;47.984;7.842;2023-03-20T01:28:11;1.00;;;0.90;;
17696;SDS011;8967;47.984;7.842;2023-03-20T01:30:42;0.80;;;0.80;;
17696;SDS011;8967;47.984;7.842;2023-03-20T01:33:14;1.00;;;0.70;;
17696;SDS011;8967;47.984;7.842;2023-03-20T01:35:43;0.82;;;0.70;;
17696;SDS011;8967;47.984;7.842;2023-03-20T01:38:14;0.82;;;0.60;;
17696;SDS011;8967;47.984;7.842;2023-03-20T01:40:47;1.58;;;0.73;;
17696;SDS011;8967;47.984;7.842;2023-03-20T01:43:23;0.80;;;0.80;;
17696;SDS011;8967;47.984;7.842;2023-03-20T01:45:56;0.63;;;0.63;;
17696;SDS011;8967;47.984;7.842;2023-03-20T01:48:34;0.68;;;0.68;;
17696;SDS011;8967;47.984;7.842;2023-03-20T01:51:22;0.82;;;0.82;;
17696;SDS011;8967;47.984;7.842;2023-03-20T01:53:53;1.15;;;0.57;;
17696;SDS011;8967;47.984;7.842;2023-03-20T01:56:24;1.40;;;0.50;;
17696;SDS011;8967;47.984;7.842;2023-03-20T01:58:55;1.33;;;1.00;;
17696;SDS011;8967;47.984;7.842;2023-03-20T02:01:26;1.02;;;0.82;;
17696;SDS011;8967;47.984;7.842;2023-03-20T02:03:53;0.60;;;0.60;;
17696;SDS011;8967;47.984;7.842;2023-03-20T02:06:48;0.80;;;0.75;;
17696;SDS011;8967;47.984;7.842;2023-03-20T02:09:21;0.85;;;0.85;;
17696;SDS011;8967;47.984;7.842;2023-03-20T02:11:48;0.75;;;0.75;;
17696;SDS011;8967;47.984;7.842;2023-03-20T02:14:19;1.85;;;0.73;;
17696;SDS011;8967;47.984;7.842;2023-03-20T02:16:52;0.90;;;0.90;;
17696;SDS011;8967;47.984;7.842;2023-03-20T02:19:41;0.52;;;0.52;;
17696;SDS011;8967;47.984;7.842;2023-03-20T02:25:25;0.82;;;0.70;;
17696;SDS011;8967;47.984;7.842;2023-03-20T02:31:28;0.60;;;0.60;;
17696;SDS011;8967;47.984;7.842;2023-03-20T02:37:39;0.88;;;0.60;;
17696;SDS011;8967;47.984;7.842;2023-03-20T02:40:24;0.90;;;0.75;;
17696;SDS011;8967;47.984;7.842;2023-03-20T02:43:02;0.77;;;0.60;;
17696;SDS011;8967;47.984;7.842;2023-03-20T02:45:41;0.65;;;0.65;;
17696;SDS011;8967;47.984;7.842;2023-03-20T02:48:19;0.82;;;0.65;;
17696;SDS011;8967;47.984;7.842;2023-03-20T02:50:57;1.10;;;0.57;;
17696;SDS011;8967;47.984;7.842;2023-03-20T02:53:35;0.65;;;0.60;;
17696;SDS011;8967;47.984;7.842;2023-03-20T02:56:10;0.90;;;0.57;;
17696;SDS011;8967;47.984;7.842;2023-03-20T02:58:45;1.20;;;0.73;;
17696;SDS011;8967;47.984;7.842;2023-03-20T03:01:16;1.48;;;0.60;;
17696;SDS011;8967;47.984;7.842;2023-03-20T03:03:51;1.58;;;0.90;;
17696;SDS011;8967;47.984;7.842;2023-03-20T03:06:23;0.90;;;0.90;;
17696;SDS011;8967;47.984;7.842;2023-03-20T03:08:56;0.80;;;0.80;;
17696;SDS011;8967;47.984;7.842;2023-03-20T03:11:26;0.88;;;0.65;;
17696;SDS011;8967;47.984;7.842;2023-03-20T03:13:55;0.60;;;0.60;;
17696;SDS011;8967;47.984;7.842;2023-03-20T03:16:27;1.40;;;0.98;;
17696;SDS011;8967;47.984;7.842;2023-03-20T03:19:01;1.95;;;0.80;;
17696;SDS011;8967;47.984;7.842;2023-03-20T03:21:35;0.82;;;0.70;;
17696;SDS011;8967;47.984;7.842;2023-03-20T03:24:05;1.15;;;0.95;;
17696;SDS011;8967;47.984;7.842;2023-03-20T03:26:42;0.90;;;0.90;;
17696;SDS011;8967;47.984;7.842;2023-03-20T03:29:10;1.17;;;1.05;;
17696;SDS011;8967;47.984;7.842;2023-03-20T03:31:41;1.33;;;0.90;;
17696;SDS011;8967;47.984;7.842;2023-03-20T03:34:10;1.23;;;1.13;;
17696;SDS011;8967;47.984;7.842;2023-03-20T03:36:42;1.30;;;1.02;;
17696;SDS011;8967;47.984;7.842;2023-03-20T03:39:19;0.90;;;0.88;;
17696;SDS011;8967;47.984;7.842;2023-03-20T03:41:52;0.70;;;0.70;;
17696;SDS011;8967;47.984;7.842;2023-03-20T03:44:28;0.80;;;0.80;;
17696;SDS011;8967;47.984;7.842;2023-03-20T03:47:01;1.08;;;0.95;;
17696;SDS011;8967;47.984;7.842;2023-03-20T03:49:32;2.58;;;1.00;;
17696;SDS011;8967;47.984;7.842;2023-03-20T03:52:05;1.27;;;0.98;;
17696;SDS011;8967;47.984;7.842;2023-03-20T03:54:40;4.10;;;0.73;;
17696;SDS011;8967;47.984;7.842;2023-03-20T03:57:38;0.80;;;0.80;;
17696;SDS011;8967;47.984;7.842;2023-03-20T04:00:12;0.70;;;0.70;;
17696;SDS011;8967;47.984;7.842;2023-03-20T04:02:43;0.68;;;0.68;;
17696;SDS011;8967;47.984;7.842;2023-03-20T04:05:12;0.90;;;0.70;;
17696;SDS011;8967;47.984;7.842;2023-03-20T04:07:43;0.90;;;0.70;;
17696;SDS011;8967;47.984;7.842;2023-03-20T04:10:12;0.68;;;0.55;;
17696;SDS011;8967;47.984;7.842;2023-03-20T04:12:42;2.50;;;0.85;;
17696;SDS011;8967;47.984;7.842;2023-03-20T04:15:10;1.13;;;0.63;;
17696;SDS011;8967;47.984;7.842;2023-03-20T04:17:38;1.75;;;0.68;;
17696;SDS011;8967;47.984;7.842;2023-03-20T04:20:07;1.23;;;0.65;;
17696;SDS011;8967;47.984;7.842;2023-03-20T04:22:35;0.50;;;0.50;;
17696;SDS011;8967;47.984;7.842;2023-03-20T04:25:05;1.85;;;0.70;;
17696;SDS011;8967;47.984;7.842;2023-03-20T04:27:35;0.90;;;0.70;;
17696;SDS011;8967;47.984;7.842;2023-03-20T04:30:10;0.80;;;0.60;;
17696;SDS011;8967;47.984;7.842;2023-03-20T04:33:10;2.45;;;0.80;;
17696;SDS011;8967;47.984;7.842;2023-03-20T04:35:56;0.80;;;0.80;;
17696;SDS011;8967;47.984;7.842;2023-03-20T04:38:23;0.98;;;0.82;;
17696;SDS011;8967;47.984;7.842;2023-03-20T04:40:52;0.98;;;0.70;;
17696;SDS011;8967;47.984;7.842;2023-03-20T04:43:20;0.95;;;0.80;;
17696;SDS011;8967;47.984;7.842;2023-03-20T04:45:47;0.60;;;0.60;;
17696;SDS011;8967;47.984;7.842;2023-03-20T04:48:14;2.08;;;0.50;;
17696;SDS011;8967;47.984;7.842;2023-03-20T04:50:41;0.88;;;0.60;;
17696;SDS011;8967;47.984;7.842;2023-03-20T04:53:11;0.75;;;0.75;;
17696;SDS011;8967;47.984;7.842;2023-03-20T04:55:37;1.48;;;0.80;;
17696;SDS011;8967;47.984;7.842;2023-03-20T04:58:04;0.80;;;0.80;;
17696;SDS011;8967;47.984;7.842;2023-03-20T05:00:33;0.68;;;0.68;;
17696;SDS011;8967;47.984;7.842;2023-03-20T05:03:00;0.65;;;0.45;;
17696;SDS011;8967;47.984;7.842;2023-03-20T05:05:27;1.58;;;0.88;;
17696;SDS011;8967;47.984;7.842;2023-03-20T05:07:54;0.82;;;0.60;;
17696;SDS011;8967;47.984;7.842;2023-03-20T05:10:29;2.60;;;1.48;;
17696;SDS011;8967;47.984;7.842;2023-03-20T05:13:02;2.03;;;0.70;;
17696;SDS011;8967;47.984;7.842;2023-03-20T05:15:54;0.80;;;0.77;;
17696;SDS011;8967;47.984;7.842;2023-03-20T05:18:48;0.65;;;0.65;;
17696;SDS011;8967;47.984;7.842;2023-03-20T05:21:35;1.48;;;0.90;;
17696;SDS011;8967;47.984;7.842;2023-03-20T05:24:26;0.82;;;0.82;;
17696;SDS011;8967;47.984;7.842;2023-03-20T05:27:09;1.05;;;0.70;;
17696;SDS011;8967;47.984;7.842;2023-03-20T05:30:00;0.88;;;0.80;;
17696;SDS011;8967;47.984;7.842;2023-03-20T05:32:52;1.50;;;1.10;;
17696;SDS011;8967;47.984;7.842;2023-03-20T05:35:25;1.02;;;1.00;;
17696;SDS011;8967;47.984;7.842;2023-03-20T05:37:57;2.08;;;0.80;;
17696;SDS011;8967;47.984;7.842;2023-03-20T05:40:47;1.20;;;1.00;;
17696;SDS011;8967;47.984;7.842;2023-03-20T05:43:44;2.33;;;1.30;;
17696;SDS011;8967;47.984;7.842;2023-03-20T05:46:30;1.13;;;1.00;;
17696;SDS011;8967;47.984;7.842;2023-03-20T05:49:17;1.23;;;0.88;;
17696;SDS011;8967;47.984;7.842;2023-03-20T05:52:10;1.52;;;0.98;;
17696;SDS011;8967;47.984;7.842;2023-03-20T05:55:09;1.10;;;1.00;;
17696;SDS011;8967;47.984;7.842;2023-03-20T05:57:50;2.95;;;1.10;;
17696;SDS011;8967;47.984;7.842;2023-03-20T06:00:28;1.00;;;1.00;;
17696;SDS011;8967;47.984;7.842;2023-03-20T06:03:18;0.80;;;0.80;;
17696;SDS011;8967;47.984;7.842;2023-03-20T06:05:58;1.63;;;1.13;;
17696;SDS011;8967;47.984;7.842;2023-03-20T06:08:25;1.48;;;1.38;;
17696;SDS011;8967;47.984;7.842;2023-03-20T06:10:57;5.78;;;2.58;;
17696;SDS011;8967;47.984;7.842;2023-03-20T06:13:27;5.13;;;2.33;;
17696;SDS011;8967;47.984;7.842;2023-03-20T06:15:54;2.85;;;2.42;;
17696;SDS011;8967;47.984;7.842;2023-03-20T06:18:22;2.38;;;2.05;;
17696;SDS011;8967;47.984;7.842;2023-03-20T06:20:51;2.53;;;2.33;;
17696;SDS011;8967;47.984;7.842;2023-03-20T06:23:20;3.17;;;2.50;;
17696;SDS011;8967;47.984;7.842;2023-03-20T06:25:50;2.67;;;2.47;;
17696;SDS011;8967;47.984;7.842;2023-03-20T06:28:18;4.57;;;3.50;;
17696;SDS011;8967;47.984;7.842;2023-03-20T06:30:49;3.38;;;2.92;;
17696;SDS011;8967;47.984;7.842;2023-03-20T06:33:18;3.03;;;2.30;;
17696;SDS011;8967;47.984;7.842;2023-03-20T06:36:06;3.05;;;1.90;;
17696;SDS011;8967;47.984;7.842;2023-03-20T06:38:37;2.40;;;2.20;;
17696;SDS011;8967;47.984;7.842;2023-03-20T06:41:09;4.80;;;2.42;;
17696;SDS011;8967;47.984;7.842;2023-03-20T06:43:36;4.57;;;2.13;;
17696;SDS011;8967;47.984;7.842;2023-03-20T06:46:04;2.00;;;1.90;;
17696;SDS011;8967;47.984;7.842;2023-03-20T06:48:32;2.15;;;1.98;;
17696;SDS011;8967;47.984;7.842;2023-03-20T06:51:03;1.88;;;1.67;;
17696;SDS011;8967;47.984;7.842;2023-03-20T06:53:37;2.25;;;1.80;;
17696;SDS011;8967;47.984;7.842;2023-03-20T06:56:08;2.25;;;2.03;;
17696;SDS011;8967;47.984;7.842;2023-03-20T06:58:38;2.25;;;1.95;;
17696;SDS011;8967;47.984;7.842;2023-03-20T07:01:09;3.03;;;1.88;;
17696;SDS011;8967;47.984;7.842;2023-03-20T07:03:37;3.20;;;1.60;;
17696;SDS011;8967;47.984;7.842;2023-03-20T07:06:06;3.08;;;2.03;;
17696;SDS011;8967;47.984;7.842;2023-03-20T07:08:35;3.28;;;1.80;;
17696;SDS011;8967;47.984;7.842;2023-03-20T07:11:04;2.72;;;1.65;;
17696;SDS011;8967;47.984;7.842;2023-03-20T07:13:33;2.15;;;1.85;;
17696;SDS011;8967;47.984;7.842;2023-03-20T07:16:10;2.35;;;2.08;;
17696;SDS011;8967;47.984;7.842;2023-03-20T07:18:39;3.53;;;1.90;;
17696;SDS011;8967;47.984;7.842;2023-03-20T07:21:06;1.75;;;1.65;;
17696;SDS011;8967;47.984;7.842;2023-03-20T07:23:34;3.10;;;1.70;;
17696;SDS011;8967;47.984;7.842;2023-03-20T07:26:01;19.92;;;3.58;;
17696;SDS011;8967;47.984;7.842;2023-03-20T07:28:31;2.08;;;1.67;;
17696;SDS011;8967;47.984;7.842;2023-03-20T07:31:11;2.85;;;2.10;;
17696;SDS011;8967;47.984;7.842;2023-03-20T07:33:45;2.15;;;1.92;;
17696;SDS011;8967;47.984;7.842;2023-03-20T07:36:12;2.17;;;1.90;;
17696;SDS011;8967;47.984;7.842;2023-03-20T07:38:42;2.60;;;2.13;;
17696;SDS011;8967;47.984;7.842;2023-03-20T07:41:11;3.35;;;1.63;;
17696;SDS011;8967;47.984;7.842;2023-03-20T07:43:42;1.65;;;1.55;;
17696;SDS011;8967;47.984;7.842;2023-03-20T07:46:28;1.55;;;1.40;;
17696;SDS011;8967;47.984;7.842;2023-03-20T07:48:55;4.18;;;1.50;;
17696;SDS011;8967;47.984;7.842;2023-03-20T07:51:22;4.53;;;1.83;;
17696;SDS011;8967;47.984;7.842;2023-03-20T07:53:49;2.30;;;1.73;;
17696;SDS011;8967;47.984;7.842;2023-03-20T07:56:18;4.05;;;2.55;;
17696;SDS011;8967;47.984;7.842;2023-03-20T07:58:45;2.15;;;1.63;;
17696;SDS011;8967;47.984;7.842;2023-03-20T08:01:14;4.72;;;2.60;;
17696;SDS011;8967;47.984;7.842;2023-03-20T08:03:41;3.22;;;2.40;;
17696;SDS011;8967;47.984;7.842;2023-03-20T08:06:10;4.35;;;2.40;;
17696;SDS011;8967;47.984;7.842;2023-03-20T08:08:37;2.70;;;2.05;;
17696;SDS011;8967;47.984;7.842;2023-03-20T08:11:04;2.38;;;2.17;;
17696;SDS011;8967;47.984;7.842;2023-03-20T08:13:32;2.22;;;2.03;;
17696;SDS011;8967;47.984;7.842;2023-03-20T08:15:59;2.42;;;1.92;;
17696;SDS011;8967;47.984;7.842;2023-03-20T08:18:26;2.20;;;2.00;;
17696;SDS011;8967;47.984;7.842;2023-03-20T08:20:53;3.40;;;2.00;;
17696;SDS011;8967;47.984;7.842;2023-03-20T08:23:20;2.28;;;2.05;;
17696;SDS011;8967;47.984;7.842;2023-03-20T08:25:48;2.60;;;1.60;;
17696;SDS011;8967;47.984;7.842;2023-03-20T08:28:16;3.03;;;2.05;;
17696;SDS011;8967;47.984;7.842;2023-03-20T08:30:45;3.55;;;2.10;;
17696;SDS011;8967;47.984;7.842;2023-03-20T08:33:14;1.67;;;1.40;;
17696;SDS011;8967;47.984;7.842;2023-03-20T08:35:42;2.88;;;2.00;;
17696;SDS011;8967;47.984;7.842;2023-03-20T08:38:09;2.15;;;1.95;;
17696;SDS011;8967;47.984;7.842;2023-03-20T08:40:39;2.38;;;1.77;;
17696;SDS011;8967;47.984;7.842;2023-03-20T08:43:06;5.63;;;3.42;;
17696;SDS011;8967;47.984;7.842;2023-03-20T08:45:35;1.92;;;1.73;;
17696;SDS011;8967;47.984;7.842;2023-03-20T08:48:03;10.05;;;4.18;;
17696;SDS011;8967;47.984;7.842;2023-03-20T08:50:30;2.40;;;2.20;;
17696;SDS011;8967;47.984;7.842;2023-03-20T08:52:57;2.97;;;2.20;;
17696;SDS011;8967;47.984;7.842;2023-03-20T08:55:25;9.20;;;4.72;;
17696;SDS011;8967;47.984;7.842;2023-03-20T08:57:52;4.13;;;2.65;;
17696;SDS011;8967;47.984;7.842;2023-03-20T09:00:21;2.40;;;2.20;;
17696;SDS011;8967;47.984;7.842;2023-03-20T09:02:49;4.97;;;2.10;;
17696;SDS011;8967;47.984;7.842;2023-03-20T09:05:17;1.98;;;1.88;;
17696;SDS011;8967;47.984;7.842;2023-03-20T09:07:47;3.95;;;1.80;;
17696;SDS011;8967;47.984;7.842;2023-03-20T09:10:16;2.15;;;1.60;;
17696;SDS011;8967;47.984;7.842;2023-03-20T09:12:43;1.63;;;1.33;;
17696;SDS011;8967;47.984;7.842;2023-03-20T09:15:10;3.05;;;1.80;;
17696;SDS011;8967;47.984;7.842;2023-03-20T09:17:37;1.55;;;1.38;;
17696;SDS011;8967;47.984;7.842;2023-03-20T09:20:04;2.92;;;2.15;;
17696;SDS011;8967;47.984;7.842;2023-03-20T09:22:33;17.13;;;9.95;;
17696;SDS011;8967;47.984;7.842;2023-03-20T09:25:00;8.38;;;5.30;;
17696;SDS011;8967;47.984;7.842;2023-03-20T09:27:30;2.05;;;1.30;;
17696;SDS011;8967;47.984;7.842;2023-03-20T09:29:56;1.60;;;1.50;;
17696;SDS011;8967;47.984;7.842;2023-03-20T09:32:26;3.00;;;1.90;;
17696;SDS011;8967;47.984;7.842;2023-03-20T09:34:53;1.95;;;1.65;;
17696;SDS011;8967;47.984;7.842;2023-03-20T09:37:20;1.52;;;1.42;;
17696;SDS011;8967;47.984;7.842;2023-03-20T09:39:48;2.53;;;2.15;;
17696;SDS011;8967;47.984;7.842;2023-03-20T09:42:18;3.85;;;2.03;;
17696;SDS011;8967;47.984;7.842;2023-03-20T09:44:56;3.92;;;1.70;;
17696;SDS011;8967;47.984;7.842;2023-03-20T09:47:31;2.75;;;1.85;;
17696;SDS011;8967;47.984;7.842;2023-03-20T09:50:11;3.55;;;1.33;;
17696;SDS011;8967;47.984;7.842;2023-03-20T09:52:49;2.92;;;1.40;;
17696;SDS011;8967;47.984;7.842;2023-03-20T09:55:24;1.38;;;1.27;;
17696;SDS011;8967;47.984;7.842;2023-03-20T09:57:57;1.60;;;1.40;;
17696;SDS011;8967;47.984;7.842;2023-03-20T10:00:30;1.20;;;1.10;;
17696;SDS011;8967;47.984;7.842;2023-03-20T10:02:59;2.58;;;1.42;;
17696;SDS011;8967;47.984;7.842;2023-03-20T10:05:29;1.50;;;1.10;;
17696;SDS011;8967;47.984;7.842;2023-03-20T10:08:00;2.25;;;1.50;;
17696;SDS011;8967;47.984;7.842;2023-03-20T10:10:33;1.67;;;1.42;;
17696;SDS011;8967;47.984;7.842;2023-03-20T10:13:12;3.95;;;1.48;;
17696;SDS011;8967;47.984;7.842;2023-03-20T10:15:54;3.15;;;1.50;;
17696;SDS011;8967;47.984;7.842;2023-03-20T10:18:26;3.38;;;2.20;;
17696;SDS011;8967;47.984;7.842;2023-03-20T10:20:56;2.00;;;1.70;;
17696;SDS011;8967;47.984;7.842;2023-03-20T10:23:30;1.60;;;1.45;;
17696;SDS011;8967;47.984;7.842;2023-03-20T10:26:04;2.35;;;1.60;;
17696;SDS011;8967;47.984;7.842;2023-03-20T10:28:35;1.50;;;1.40;;
17696;SDS011;8967;47.984;7.842;2023-03-20T10:31:16;1.65;;;1.30;;
17696;SDS011;8967;47.984;7.842;2023-03-20T10:33:54;2.90;;;1.83;;
17696;SDS011;8967;47.984;7.842;2023-03-20T10:36:38;1.98;;;1.40;;
17696;SDS011;8967;47.984;7.842;2023-03-20T10:39:16;1.38;;;1.27;;
17696;SDS011;8967;47.984;7.842;2023-03-20T10:41:53;2.75;;;1.10;;
17696;SDS011;8967;47.984;7.842;2023-03-20T10:44:26;2.25;;;1.10;;
17696;SDS011;8967;47.984;7.842;2023-03-20T10:46:56;0.80;;;0.80;;
17696;SDS011;8967;47.984;7.842;2023-03-20T10:49:28;1.20;;;0.88;;
17696;SDS011;8967;47.984;7.842;2023-03-20T10:52:04;1.52;;;1.38;;
17696;SDS011;8967;47.984;7.842;2023-03-20T10:54:35;2.22;;;1.50;;
17696;SDS011;8967;47.984;7.842;2023-03-20T10:57:09;2.97;;;0.95;;
17696;SDS011;8967;47.984;7.842;2023-03-20T10:59:40;2.45;;;0.90;;
17696;SDS011;8967;47.984;7.842;2023-03-20T11:02:16;0.70;;;0.70;;
17696;SDS011;8967;47.984;7.842;2023-03-20T11:04:44;0.73;;;0.70;;
17696;SDS011;8967;47.984;7.842;2023-03-20T11:07:13;5.05;;;0.80;;
17696;SDS011;8967;47.984;7.842;2023-03-20T11:12:39;0.90;;;0.90;;
17696;SDS011;8967;47.984;7.842;2023-03-20T11:15:17;1.15;;;0.90;;
17696;SDS011;8967;47.984;7.842;2023-03-20T11:17:51;1.92;;;0.90;;
17696;SDS011;8967;47.984;7.842;2023-03-20T11:20:19;1.02;;;0.70;;
17696;SDS011;8967;47.984;7.842;2023-03-20T11:22:47;1.45;;;1.30;;
17696;SDS011;8967;47.984;7.842;2023-03-20T11:31:01;1.75;;;1.40;;
17696;SDS011;8967;47.984;7.842;2023-03-20T11:33:31;1.23;;;1.00;;
17696;SDS011;8967;47.984;7.842;2023-03-20T11:36:01;1.58;;;1.20;;
17696;SDS011;8967;47.984;7.842;2023-03-20T11:38:41;1.65;;;1.55;;
17696;SDS011;8967;47.984;7.842;2023-03-20T11:41:15;1.13;;;1.00;;
17696;SDS011;8967;47.984;7.842;2023-03-20T11:43:44;1.85;;;1.30;;
17696;SDS011;8967;47.984;7.842;2023-03-20T11:46:11;1.77;;;1.20;;
17696;SDS011;8967;47.984;7.842;2023-03-20T11:48:40;1.35;;;1.15;;
17696;SDS011;8967;47.984;7.842;2023-03-20T11:51:13;3.95;;;1.25;;
17696;SDS011;8967;47.984;7.842;2023-03-20T11:53:54;1.30;;;1.20;;
17696;SDS011;8967;47.984;7.842;2023-03-20T11:56:27;3.40;;;1.38;;
17696;SDS011;8967;47.984;7.842;2023-03-20T11:58:56;1.50;;;1.30;;
17696;SDS011;8967;47.984;7.842;2023-03-20T12:01:37;2.08;;;1.40;;
17696;SDS011;8967;47.984;7.842;2023-03-20T12:04:11;2.35;;;1.30;;
17696;SDS011;8967;47.984;7.842;2023-03-20T12:06:46;1.13;;;1.02;;
17696;SDS011;8967;47.984;7.842;2023-03-20T12:09:22;3.25;;;1.50;;
17696;SDS011;8967;47.984;7.842;2023-03-20T12:11:55;1.08;;;0.95;;
17696;SDS011;8967;47.984;7.842;2023-03-20T12:14:28;2.20;;;2.00;;
17696;SDS011;8967;47.984;7.842;2023-03-20T12:17:11;7.88;;;3.15;;
17696;SDS011;8967;47.984;7.842;2023-03-20T12:19:50;3.55;;;1.60;;
17696;SDS011;8967;47.984;7.842;2023-03-20T12:22:21;2.67;;;1.25;;
17696;SDS011;8967;47.984;7.842;2023-03-20T12:24:54;1.50;;;1.13;;
17696;SDS011;8967;47.984;7.842;2023-03-20T12:27:29;1.20;;;1.10;;
17696;SDS011;8967;47.984;7.842;2023-03-20T12:30:04;1.80;;;0.90;;
17696;SDS011;8967;47.984;7.842;2023-03-20T12:32:39;3.20;;;1.20;;
17696;SDS011;8967;47.984;7.842;2023-03-20T12:35:10;2.38;;;1.13;;
17696;SDS011;8967;47.984;7.842;2023-03-20T12:37:41;1.58;;;1.35;;
17696;SDS011;8967;47.984;7.842;2023-03-20T12:40:11;1.30;;;0.95;;
17696;SDS011;8967;47.984;7.842;2023-03-20T12:42:44;2.70;;;1.60;;
17696;SDS011;8967;47.984;7.842;2023-03-20T12:45:21;2.83;;;2.33;;
17696;SDS011;8967;47.984;7.842;2023-03-20T12:48:00;1.95;;;1.75;;
17696;SDS011;8967;47.984;7.842;2023-03-20T12:50:46;1.15;;;1.05;;
17696;SDS011;8967;47.984;7.842;2023-03-20T12:53:26;3.17;;;1.67;;
17696;SDS011;8967;47.984;7.842;2023-03-20T12:56:02;2.90;;;2.08;;
17696;SDS011;8967;47.984;7.842;2023-03-20T12:58:40;1.17;;;1.08;;
17696;SDS011;8967;47.984;7.842;2023-03-20T13:01:15;1.50;;;1.33;;
17696;SDS011;8967;47.984;7.842;2023-03-20T13:04:00;2.67;;;2.17;;
17696;SDS011;8967;47.984;7.842;2023-03-20T13:06:41;2.33;;;1.60;;
17696;SDS011;8967;47.984;7.842;2023-03-20T13:09:20;2.50;;;1.45;;
17696;SDS011;8967;47.984;7.842;2023-03-20T13:12:26;1.88;;;1.38;;
17696;SDS011;8967;47.984;7.842;2023-03-20T13:15:02;1.60;;;1.20;;
17696;SDS011;8967;47.984;7.842;2023-03-20T13:17:43;1.50;;;1.10;;
17696;SDS011;8967;47.984;7.842;2023-03-20T13:20:18;3.45;;;1.08;;
17696;SDS011;8967;47.984;7.842;2023-03-20T13:22:53;2.15;;;1.00;;
17696;SDS011;8967;47.984;7.842;2023-03-20T13:25:32;0.90;;;0.90;;
17696;SDS011;8967;47.984;7.842;2023-03-20T13:28:11;1.25;;;0.90;;
17696;SDS011;8967;47.984;7.842;2023-03-20T13:30:48;0.95;;;0.80;;
17696;SDS011;8967;47.984;7.842;2023-03-20T13:33:23;2.83;;;1.05;;
17696;SDS011;8967;47.984;7.842;2023-03-20T13:36:01;2.08;;;0.98;;
17696;SDS011;8967;47.984;7.842;2023-03-20T13:38:34;0.93;;;0.82;;
17696;SDS011;8967;47.984;7.842;2023-03-20T13:41:08;0.75;;;0.70;;
17696;SDS011;8967;47.984;7.842;2023-03-20T13:43:36;0.77;;;0.77;;
17696;SDS011;8967;47.984;7.842;2023-03-20T13:46:08;1.00;;;0.75;;
17696;SDS011;8967;47.984;7.842;2023-03-20T13:48:41;1.92;;;0.82;;
17696;SDS011;8967;47.984;7.842;2023-03-20T13:51:22;0.70;;;0.63;;
17696;SDS011;8967;47.984;7.842;2023-03-20T13:54:04;1.60;;;1.10;;
17696;SDS011;8967;47.984;7.842;2023-03-20T13:56:43;1.92;;;1.00;;
17696;SDS011;8967;47.984;7.842;2023-03-20T13:59:25;0.88;;;0.85;;
17696;SDS011;8967;47.984;7.842;2023-03-20T14:02:08;0.75;;;0.75;;
17696;SDS011;8967;47.984;7.842;2023-03-20T14:04:47;1.50;;;1.00;;
17696;SDS011;8967;47.984;7.842;2023-03-20T14:07:26;1.77;;;0.95;;
17696;SDS011;8967;47.984;7.842;2023-03-20T14:09:55;1.60;;;0.80;;
17696;SDS011;8967;47.984;7.842;2023-03-20T14:12:23;0.95;;;0.90;;
17696;SDS011;8967;47.984;7.842;2023-03-20T14:14:54;1.00;;;0.90;;
17696;SDS011;8967;47.984;7.842;2023-03-20T14:17:23;2.45;;;1.13;;
17696;SDS011;8967;47.984;7.842;2023-03-20T14:19:56;1.55;;;0.90;;
17696;SDS011;8967;47.984;7.842;2023-03-20T14:22:37;1.40;;;1.08;;
17696;SDS011;8967;47.984;7.842;2023-03-20T14:25:13;0.82;;;0.80;;
17696;SDS011;8967;47.984;7.842;2023-03-20T14:27:53;4.00;;;1.13;;
17696;SDS011;8967;47.984;7.842;2023-03-20T14:33:21;1.42;;;1.05;;
17696;SDS011;8967;47.984;7.842;2023-03-20T14:36:09;0.75;;;0.75;;
17696;SDS011;8967;47.984;7.842;2023-03-20T14:38:43;0.98;;;0.80;;
17696;SDS011;8967;47.984;7.842;2023-03-20T14:41:23;1.23;;;0.93;;
17696;SDS011;8967;47.984;7.842;2023-03-20T14:43:57;0.68;;;0.65;;
17696;SDS011;8967;47.984;7.842;2023-03-20T14:46:33;0.70;;;0.50;;
17696;SDS011;8967;47.984;7.842;2023-03-20T14:49:32;1.40;;;0.80;;
17696;SDS011;8967;47.984;7.842;2023-03-20T14:52:14;0.80;;;0.80;;
17696;SDS011;8967;47.984;7.842;2023-03-20T14:55:14;0.70;;;0.70;;
17696;SDS011;8967;47.984;7.842;2023-03-20T14:58:35;1.40;;;0.90;;
17696;SDS011;8967;47.984;7.842;2023-03-20T15:01:05;0.85;;;0.70;;
17696;SDS011;8967;47.984;7.842;2023-03-20T15:03:33;0.98;;;0.75;;
17696;SDS011;8967;47.984;7.842;2023-03-20T15:06:05;1.63;;;0.70;;
17696;SDS011;8967;47.984;7.842;2023-03-20T15:08:36;2.88;;;0.73;;
17696;SDS011;8967;47.984;7.842;2023-03-20T15:11:09;0.75;;;0.75;;
17696;SDS011;8967;47.984;7.842;2023-03-20T15:13:39;0.95;;;0.70;;
17696;SDS011;8967;47.984;7.842;2023-03-20T15:16:08;0.93;;;0.60;;
17696;SDS011;8967;47.984;7.842;2023-03-20T15:18:37;0.60;;;0.60;;
17696;SDS011;8967;47.984;7.842;2023-03-20T15:21:10;0.93;;;0.88;;
17696;SDS011;8967;47.984;7.842;2023-03-20T15:23:42;1.65;;;0.90;;
17696;SDS011;8967;47.984;7.842;2023-03-20T15:26:10;3.03;;;0.80;;
17696;SDS011;8967;47.984;7.842;2023-03-20T15:28:39;1.02;;;0.70;;
17696;SDS011;8967;47.984;7.842;2023-03-20T15:31:12;1.08;;;0.70;;
17696;SDS011;8967;47.984;7.842;2023-03-20T15:33:46;0.90;;;0.90;;
17696;SDS011;8967;47.984;7.842;2023-03-20T15:36:14;1.85;;;0.90;;
17696;SDS011;8967;47.984;7.842;2023-03-20T15:38:45;0.75;;;0.75;;
17696;SDS011;8967;47.984;7.842;2023-03-20T15:41:22;1.83;;;0.85;;
17696;SDS011;8967;47.984;7.842;2023-03-20T15:44:01;1.30;;;0.98;;
17696;SDS011;8967;47.984;7.842;2023-03-20T15:46:29;1.08;;;1.00;;
17696;SDS011;8967;47.984;7.842;2023-03-20T15:48:56;0.70;;;0.70;;
17696;SDS011;8967;47.984;7.842;2023-03-20T15:51:25;0.95;;;0.90;;
17696;SDS011;8967;47.984;7.842;2023-03-20T15:53:54;2.13;;;0.68;;
17696;SDS011;8967;47.984;7.842;2023-03-20T15:56:23;1.13;;;0.85;;
17696;SDS011;8967;47.984;7.842;2023-03-20T15:58:54;0.93;;;0.80;;